Etusivu
METAR-TAF:

METAR-TAF

Lentoasemat :

Hoonah, Alaska, Yhdysvallat

Leveyspiiri: 58-07N, Pituuspiiri: 135-27W, korkeus merenpinnasta: 0 m

Tämänhetkinen sää

Tämä raportti tehtiin 28 minuuttia sitten, kello 20.56 UTC
Tuuli 10 kn idästä/koillisesta
Lämpötila 8°C
Kosteus 93%
Ilmanpaine 990 hPa
Näkyvyys: 12.9 km
Pilvistä 2600 ft:n korkeudessa
sadetta

METAR: PAOH 162056Z AUTO 06010KT 8SM RA OVC026 08/07 A2922 RMK AO2 SLP895 P0004 60006 T00780067 58020

Aika: 12:24 (21:24 UTC)


TAF: puuttuu

Säähavainnot ja -ennusteet yli 4000 lentoasemalta (METAR- ja TAF-raportit).

Käytössä olevat sääasemat on merkitty karttaan keltaisilla ja punaisilla pisteillä.

Aseta hiiri pisteen päälle nähdäksesi sääaseman nimen.

Klikkaa sitten nähdäksesi säähavainnot ja -ennusteet.

Kartan vaihtaminen: klikkaa mustalla rastilla varustettuja vihreitä pisteitä, niin voit zoomata sisään; viivalla varustettua vihreää pistettä, niin voit zoomata ulos tai vihreitä nuolia, niin pääset viereisille kartoille.


METAR-TAF: